sensor_id;sensor_type;location;lat;lon;timestamp;P1;durP1;ratioP1;P2;durP2;ratioP2
12577;SDS011;6354;51.026;8.968;2023-04-24T00:00:16;4.50;;;2.13;;
12577;SDS011;6354;51.026;8.968;2023-04-24T00:02:44;6.83;;;1.70;;
12577;SDS011;6354;51.026;8.968;2023-04-24T00:05:15;3.00;;;1.70;;
12577;SDS011;6354;51.026;8.968;2023-04-24T00:07:43;3.27;;;1.80;;
12577;SDS011;6354;51.026;8.968;2023-04-24T00:10:12;2.47;;;1.80;;
12577;SDS011;6354;51.026;8.968;2023-04-24T00:12:40;2.07;;;1.83;;
12577;SDS011;6354;51.026;8.968;2023-04-24T00:15:08;4.80;;;1.77;;
12577;SDS011;6354;51.026;8.968;2023-04-24T00:17:37;2.30;;;1.97;;
12577;SDS011;6354;51.026;8.968;2023-04-24T00:20:06;4.47;;;2.00;;
12577;SDS011;6354;51.026;8.968;2023-04-24T00:22:37;1.83;;;1.73;;
12577;SDS011;6354;51.026;8.968;2023-04-24T00:25:06;2.67;;;1.77;;
12577;SDS011;6354;51.026;8.968;2023-04-24T00:27:34;2.90;;;1.87;;
12577;SDS011;6354;51.026;8.968;2023-04-24T00:30:03;2.83;;;2.27;;
12577;SDS011;6354;51.026;8.968;2023-04-24T00:32:32;2.20;;;1.63;;
12577;SDS011;6354;51.026;8.968;2023-04-24T00:35:00;2.83;;;2.00;;
12577;SDS011;6354;51.026;8.968;2023-04-24T00:37:28;2.50;;;2.13;;
12577;SDS011;6354;51.026;8.968;2023-04-24T00:39:58;2.63;;;2.07;;
12577;SDS011;6354;51.026;8.968;2023-04-24T00:42:26;2.33;;;1.87;;
12577;SDS011;6354;51.026;8.968;2023-04-24T00:44:54;2.87;;;2.10;;
12577;SDS011;6354;51.026;8.968;2023-04-24T00:47:24;2.07;;;1.90;;
12577;SDS011;6354;51.026;8.968;2023-04-24T00:49:53;3.27;;;1.87;;
12577;SDS011;6354;51.026;8.968;2023-04-24T00:52:21;2.77;;;2.10;;
12577;SDS011;6354;51.026;8.968;2023-04-24T00:54:50;3.80;;;2.00;;
12577;SDS011;6354;51.026;8.968;2023-04-24T00:57:19;4.23;;;2.07;;
12577;SDS011;6354;51.026;8.968;2023-04-24T00:59:50;2.27;;;2.07;;
12577;SDS011;6354;51.026;8.968;2023-04-24T01:02:18;3.57;;;2.23;;
12577;SDS011;6354;51.026;8.968;2023-04-24T01:04:49;2.37;;;1.90;;
12577;SDS011;6354;51.026;8.968;2023-04-24T01:07:18;2.30;;;2.10;;
12577;SDS011;6354;51.026;8.968;2023-04-24T01:09:47;2.47;;;1.90;;
12577;SDS011;6354;51.026;8.968;2023-04-24T01:12:17;3.20;;;2.00;;
12577;SDS011;6354;51.026;8.968;2023-04-24T01:14:47;2.67;;;1.97;;
12577;SDS011;6354;51.026;8.968;2023-04-24T01:17:15;2.97;;;2.20;;
12577;SDS011;6354;51.026;8.968;2023-04-24T01:19:43;4.07;;;2.73;;
12577;SDS011;6354;51.026;8.968;2023-04-24T01:22:14;3.87;;;2.70;;
12577;SDS011;6354;51.026;8.968;2023-04-24T01:28:00;4.20;;;2.90;;
12577;SDS011;6354;51.026;8.968;2023-04-24T01:30:28;5.83;;;3.50;;
12577;SDS011;6354;51.026;8.968;2023-04-24T01:32:57;4.10;;;3.30;;
12577;SDS011;6354;51.026;8.968;2023-04-24T01:35:26;4.03;;;3.60;;
12577;SDS011;6354;51.026;8.968;2023-04-24T01:37:56;4.93;;;4.00;;
12577;SDS011;6354;51.026;8.968;2023-04-24T01:40:25;6.77;;;4.57;;
12577;SDS011;6354;51.026;8.968;2023-04-24T01:42:53;4.97;;;4.30;;
12577;SDS011;6354;51.026;8.968;2023-04-24T01:45:21;5.53;;;4.13;;
12577;SDS011;6354;51.026;8.968;2023-04-24T01:47:49;5.20;;;4.70;;
12577;SDS011;6354;51.026;8.968;2023-04-24T01:50:18;6.57;;;5.20;;
12577;SDS011;6354;51.026;8.968;2023-04-24T01:52:46;6.73;;;4.93;;
12577;SDS011;6354;51.026;8.968;2023-04-24T01:55:15;7.77;;;5.00;;
12577;SDS011;6354;51.026;8.968;2023-04-24T01:57:43;7.40;;;4.97;;
12577;SDS011;6354;51.026;8.968;2023-04-24T02:00:11;7.13;;;4.80;;
12577;SDS011;6354;51.026;8.968;2023-04-24T02:02:40;6.53;;;3.80;;
12577;SDS011;6354;51.026;8.968;2023-04-24T02:05:13;5.97;;;4.30;;
12577;SDS011;6354;51.026;8.968;2023-04-24T02:07:41;6.10;;;4.30;;
12577;SDS011;6354;51.026;8.968;2023-04-24T02:10:09;4.77;;;4.17;;
12577;SDS011;6354;51.026;8.968;2023-04-24T02:12:39;4.07;;;3.77;;
12577;SDS011;6354;51.026;8.968;2023-04-24T02:15:07;5.90;;;3.80;;
12577;SDS011;6354;51.026;8.968;2023-04-24T02:17:36;5.07;;;3.90;;
12577;SDS011;6354;51.026;8.968;2023-04-24T02:20:05;3.70;;;3.40;;
12577;SDS011;6354;51.026;8.968;2023-04-24T02:22:34;3.90;;;3.50;;
12577;SDS011;6354;51.026;8.968;2023-04-24T02:25:02;4.63;;;3.43;;
12577;SDS011;6354;51.026;8.968;2023-04-24T02:27:31;5.83;;;3.53;;
12577;SDS011;6354;51.026;8.968;2023-04-24T02:30:00;4.70;;;3.40;;
12577;SDS011;6354;51.026;8.968;2023-04-24T02:32:29;7.37;;;3.63;;
12577;SDS011;6354;51.026;8.968;2023-04-24T02:34:57;6.03;;;3.70;;
12577;SDS011;6354;51.026;8.968;2023-04-24T02:37:25;3.60;;;3.27;;
12577;SDS011;6354;51.026;8.968;2023-04-24T02:39:53;6.83;;;3.80;;
12577;SDS011;6354;51.026;8.968;2023-04-24T02:42:21;7.60;;;3.40;;
12577;SDS011;6354;51.026;8.968;2023-04-24T02:44:49;4.10;;;3.70;;
12577;SDS011;6354;51.026;8.968;2023-04-24T02:47:19;4.47;;;3.67;;
12577;SDS011;6354;51.026;8.968;2023-04-24T02:49:47;5.17;;;3.53;;
12577;SDS011;6354;51.026;8.968;2023-04-24T02:52:15;7.83;;;3.93;;
12577;SDS011;6354;51.026;8.968;2023-04-24T02:54:43;4.60;;;3.67;;
12577;SDS011;6354;51.026;8.968;2023-04-24T02:57:11;4.90;;;3.70;;
12577;SDS011;6354;51.026;8.968;2023-04-24T02:59:39;4.33;;;3.83;;
12577;SDS011;6354;51.026;8.968;2023-04-24T03:02:07;4.63;;;3.83;;
12577;SDS011;6354;51.026;8.968;2023-04-24T03:04:36;5.40;;;4.00;;
12577;SDS011;6354;51.026;8.968;2023-04-24T03:07:06;7.37;;;4.07;;
12577;SDS011;6354;51.026;8.968;2023-04-24T03:09:34;4.70;;;3.90;;
12577;SDS011;6354;51.026;8.968;2023-04-24T03:12:02;4.73;;;3.90;;
12577;SDS011;6354;51.026;8.968;2023-04-24T03:14:30;4.87;;;4.30;;
12577;SDS011;6354;51.026;8.968;2023-04-24T03:16:58;4.63;;;4.23;;
12577;SDS011;6354;51.026;8.968;2023-04-24T03:19:26;5.10;;;4.20;;
12577;SDS011;6354;51.026;8.968;2023-04-24T03:21:56;5.00;;;4.50;;
12577;SDS011;6354;51.026;8.968;2023-04-24T03:24:24;4.70;;;4.03;;
12577;SDS011;6354;51.026;8.968;2023-04-24T03:26:54;5.13;;;4.30;;
12577;SDS011;6354;51.026;8.968;2023-04-24T03:29:23;4.70;;;4.10;;
12577;SDS011;6354;51.026;8.968;2023-04-24T03:31:51;4.93;;;4.40;;
12577;SDS011;6354;51.026;8.968;2023-04-24T03:34:19;9.03;;;4.40;;
12577;SDS011;6354;51.026;8.968;2023-04-24T03:36:47;4.10;;;3.73;;
12577;SDS011;6354;51.026;8.968;2023-04-24T03:39:16;5.10;;;3.57;;
12577;SDS011;6354;51.026;8.968;2023-04-24T03:41:44;3.60;;;3.30;;
12577;SDS011;6354;51.026;8.968;2023-04-24T03:44:12;8.20;;;3.60;;
12577;SDS011;6354;51.026;8.968;2023-04-24T03:46:40;4.57;;;3.53;;
12577;SDS011;6354;51.026;8.968;2023-04-24T03:49:08;5.37;;;3.60;;
12577;SDS011;6354;51.026;8.968;2023-04-24T03:51:36;3.53;;;3.10;;
12577;SDS011;6354;51.026;8.968;2023-04-24T03:54:04;3.90;;;3.10;;
12577;SDS011;6354;51.026;8.968;2023-04-24T03:56:34;3.83;;;3.23;;
12577;SDS011;6354;51.026;8.968;2023-04-24T03:59:01;3.67;;;3.30;;
12577;SDS011;6354;51.026;8.968;2023-04-24T04:01:29;3.37;;;3.07;;
12577;SDS011;6354;51.026;8.968;2023-04-24T04:03:58;3.00;;;2.80;;
12577;SDS011;6354;51.026;8.968;2023-04-24T04:06:26;3.63;;;3.33;;
12577;SDS011;6354;51.026;8.968;2023-04-24T04:08:54;3.70;;;3.40;;
12577;SDS011;6354;51.026;8.968;2023-04-24T04:11:22;3.83;;;3.50;;
12577;SDS011;6354;51.026;8.968;2023-04-24T04:13:52;4.13;;;3.70;;
12577;SDS011;6354;51.026;8.968;2023-04-24T04:16:20;4.70;;;4.27;;
12577;SDS011;6354;51.026;8.968;2023-04-24T04:18:49;4.60;;;4.10;;
12577;SDS011;6354;51.026;8.968;2023-04-24T04:21:16;4.17;;;3.40;;
12577;SDS011;6354;51.026;8.968;2023-04-24T04:23:44;4.77;;;3.50;;
12577;SDS011;6354;51.026;8.968;2023-04-24T04:26:12;4.10;;;3.60;;
12577;SDS011;6354;51.026;8.968;2023-04-24T04:28:40;3.93;;;3.30;;
12577;SDS011;6354;51.026;8.968;2023-04-24T04:31:12;5.37;;;3.70;;
12577;SDS011;6354;51.026;8.968;2023-04-24T04:33:40;3.27;;;3.07;;
12577;SDS011;6354;51.026;8.968;2023-04-24T04:36:08;3.33;;;2.90;;
12577;SDS011;6354;51.026;8.968;2023-04-24T04:38:35;4.60;;;3.17;;
12577;SDS011;6354;51.026;8.968;2023-04-24T04:41:05;3.40;;;3.10;;
12577;SDS011;6354;51.026;8.968;2023-04-24T04:43:33;3.30;;;3.00;;
12577;SDS011;6354;51.026;8.968;2023-04-24T04:46:02;3.83;;;2.73;;
12577;SDS011;6354;51.026;8.968;2023-04-24T04:48:32;5.23;;;3.37;;
12577;SDS011;6354;51.026;8.968;2023-04-24T04:51:00;3.40;;;3.10;;
12577;SDS011;6354;51.026;8.968;2023-04-24T04:53:28;4.80;;;3.60;;
12577;SDS011;6354;51.026;8.968;2023-04-24T04:55:56;3.43;;;3.13;;
12577;SDS011;6354;51.026;8.968;2023-04-24T04:58:24;6.53;;;3.40;;
12577;SDS011;6354;51.026;8.968;2023-04-24T05:00:52;4.63;;;3.50;;
12577;SDS011;6354;51.026;8.968;2023-04-24T05:03:20;4.03;;;3.63;;
12577;SDS011;6354;51.026;8.968;2023-04-24T05:05:49;3.57;;;3.07;;
12577;SDS011;6354;51.026;8.968;2023-04-24T05:08:17;3.97;;;2.90;;
12577;SDS011;6354;51.026;8.968;2023-04-24T05:10:53;3.70;;;3.10;;
12577;SDS011;6354;51.026;8.968;2023-04-24T05:13:21;3.73;;;2.87;;
12577;SDS011;6354;51.026;8.968;2023-04-24T05:15:52;3.27;;;2.97;;
12577;SDS011;6354;51.026;8.968;2023-04-24T05:18:20;3.70;;;3.27;;
12577;SDS011;6354;51.026;8.968;2023-04-24T05:20:49;3.40;;;3.10;;
12577;SDS011;6354;51.026;8.968;2023-04-24T05:23:17;3.67;;;3.37;;
12577;SDS011;6354;51.026;8.968;2023-04-24T05:25:45;4.83;;;3.20;;
12577;SDS011;6354;51.026;8.968;2023-04-24T05:28:14;4.13;;;3.33;;
12577;SDS011;6354;51.026;8.968;2023-04-24T05:30:42;3.63;;;3.33;;
12577;SDS011;6354;51.026;8.968;2023-04-24T05:33:10;4.33;;;3.50;;
12577;SDS011;6354;51.026;8.968;2023-04-24T05:35:40;3.70;;;3.40;;
12577;SDS011;6354;51.026;8.968;2023-04-24T05:38:14;4.63;;;3.20;;
12577;SDS011;6354;51.026;8.968;2023-04-24T05:40:44;3.93;;;3.57;;
12577;SDS011;6354;51.026;8.968;2023-04-24T05:43:11;5.03;;;4.07;;
12577;SDS011;6354;51.026;8.968;2023-04-24T05:45:40;4.87;;;3.80;;
12577;SDS011;6354;51.026;8.968;2023-04-24T05:48:08;4.53;;;3.53;;
12577;SDS011;6354;51.026;8.968;2023-04-24T05:50:36;4.10;;;3.70;;
12577;SDS011;6354;51.026;8.968;2023-04-24T05:53:04;5.07;;;3.67;;
12577;SDS011;6354;51.026;8.968;2023-04-24T05:55:34;3.40;;;3.10;;
12577;SDS011;6354;51.026;8.968;2023-04-24T05:58:03;5.37;;;3.60;;
12577;SDS011;6354;51.026;8.968;2023-04-24T06:00:31;5.37;;;4.47;;
12577;SDS011;6354;51.026;8.968;2023-04-24T06:03:00;4.40;;;3.87;;
12577;SDS011;6354;51.026;8.968;2023-04-24T06:05:30;5.03;;;4.60;;
12577;SDS011;6354;51.026;8.968;2023-04-24T06:07:58;6.30;;;4.93;;
12577;SDS011;6354;51.026;8.968;2023-04-24T06:10:26;5.57;;;5.07;;
12577;SDS011;6354;51.026;8.968;2023-04-24T06:12:55;5.80;;;5.13;;
12577;SDS011;6354;51.026;8.968;2023-04-24T06:15:27;5.47;;;4.97;;
12577;SDS011;6354;51.026;8.968;2023-04-24T06:17:56;6.37;;;4.37;;
12577;SDS011;6354;51.026;8.968;2023-04-24T06:20:25;5.47;;;4.93;;
12577;SDS011;6354;51.026;8.968;2023-04-24T06:22:53;5.90;;;4.90;;
12577;SDS011;6354;51.026;8.968;2023-04-24T06:25:21;5.90;;;5.30;;
12577;SDS011;6354;51.026;8.968;2023-04-24T06:27:52;6.13;;;5.20;;
12577;SDS011;6354;51.026;8.968;2023-04-24T06:30:22;5.20;;;4.70;;
12577;SDS011;6354;51.026;8.968;2023-04-24T06:32:50;6.00;;;5.40;;
12577;SDS011;6354;51.026;8.968;2023-04-24T06:35:19;5.53;;;5.03;;
12577;SDS011;6354;51.026;8.968;2023-04-24T06:37:46;8.70;;;5.60;;
12577;SDS011;6354;51.026;8.968;2023-04-24T06:40:15;6.97;;;5.57;;
12577;SDS011;6354;51.026;8.968;2023-04-24T06:42:44;6.07;;;5.40;;
12577;SDS011;6354;51.026;8.968;2023-04-24T06:45:12;6.30;;;5.40;;
12577;SDS011;6354;51.026;8.968;2023-04-24T06:47:42;6.83;;;5.83;;
12577;SDS011;6354;51.026;8.968;2023-04-24T06:50:10;6.73;;;5.73;;
12577;SDS011;6354;51.026;8.968;2023-04-24T06:52:38;8.43;;;5.43;;
12577;SDS011;6354;51.026;8.968;2023-04-24T06:55:07;6.67;;;5.70;;
12577;SDS011;6354;51.026;8.968;2023-04-24T06:57:37;5.87;;;5.27;;
12577;SDS011;6354;51.026;8.968;2023-04-24T07:00:05;6.67;;;5.60;;
12577;SDS011;6354;51.026;8.968;2023-04-24T07:02:35;6.87;;;5.37;;
12577;SDS011;6354;51.026;8.968;2023-04-24T07:05:05;6.10;;;5.33;;
12577;SDS011;6354;51.026;8.968;2023-04-24T07:07:34;5.90;;;5.30;;
12577;SDS011;6354;51.026;8.968;2023-04-24T07:10:04;7.47;;;5.80;;
12577;SDS011;6354;51.026;8.968;2023-04-24T07:12:33;5.57;;;5.07;;
12577;SDS011;6354;51.026;8.968;2023-04-24T07:15:01;6.93;;;5.40;;
12577;SDS011;6354;51.026;8.968;2023-04-24T07:17:30;6.00;;;4.97;;
12577;SDS011;6354;51.026;8.968;2023-04-24T07:19:58;6.03;;;4.77;;
12577;SDS011;6354;51.026;8.968;2023-04-24T07:22:27;7.50;;;5.07;;
12577;SDS011;6354;51.026;8.968;2023-04-24T07:24:55;8.20;;;4.70;;
12577;SDS011;6354;51.026;8.968;2023-04-24T07:27:23;6.77;;;4.57;;
12577;SDS011;6354;51.026;8.968;2023-04-24T07:29:52;5.37;;;4.87;;
12577;SDS011;6354;51.026;8.968;2023-04-24T07:32:20;7.47;;;4.90;;
12577;SDS011;6354;51.026;8.968;2023-04-24T07:34:48;6.57;;;4.67;;
12577;SDS011;6354;51.026;8.968;2023-04-24T07:37:16;5.30;;;4.77;;
12577;SDS011;6354;51.026;8.968;2023-04-24T07:39:46;5.37;;;4.60;;
12577;SDS011;6354;51.026;8.968;2023-04-24T07:42:14;5.93;;;5.20;;
12577;SDS011;6354;51.026;8.968;2023-04-24T07:44:42;6.17;;;4.90;;
12577;SDS011;6354;51.026;8.968;2023-04-24T07:47:10;5.70;;;4.90;;
12577;SDS011;6354;51.026;8.968;2023-04-24T07:49:38;6.97;;;5.53;;
12577;SDS011;6354;51.026;8.968;2023-04-24T07:52:06;8.80;;;5.53;;
12577;SDS011;6354;51.026;8.968;2023-04-24T07:54:34;4.73;;;4.33;;
12577;SDS011;6354;51.026;8.968;2023-04-24T07:57:04;5.53;;;4.43;;
12577;SDS011;6354;51.026;8.968;2023-04-24T07:59:34;5.87;;;4.77;;
12577;SDS011;6354;51.026;8.968;2023-04-24T08:02:02;7.03;;;5.00;;
12577;SDS011;6354;51.026;8.968;2023-04-24T08:04:30;5.73;;;5.13;;
12577;SDS011;6354;51.026;8.968;2023-04-24T08:06:58;6.37;;;4.67;;
12577;SDS011;6354;51.026;8.968;2023-04-24T08:09:26;6.10;;;5.03;;
12577;SDS011;6354;51.026;8.968;2023-04-24T08:11:54;5.07;;;4.53;;
12577;SDS011;6354;51.026;8.968;2023-04-24T08:14:24;6.03;;;4.90;;
12577;SDS011;6354;51.026;8.968;2023-04-24T08:16:53;5.77;;;4.50;;
12577;SDS011;6354;51.026;8.968;2023-04-24T08:19:22;5.23;;;4.73;;
12577;SDS011;6354;51.026;8.968;2023-04-24T08:21:50;5.43;;;4.40;;
12577;SDS011;6354;51.026;8.968;2023-04-24T08:24:18;5.33;;;4.83;;
12577;SDS011;6354;51.026;8.968;2023-04-24T08:26:46;5.10;;;4.63;;
12577;SDS011;6354;51.026;8.968;2023-04-24T08:29:16;5.07;;;4.50;;
12577;SDS011;6354;51.026;8.968;2023-04-24T08:31:45;4.70;;;4.30;;
12577;SDS011;6354;51.026;8.968;2023-04-24T08:34:13;4.60;;;3.93;;
12577;SDS011;6354;51.026;8.968;2023-04-24T08:36:41;4.33;;;3.93;;
12577;SDS011;6354;51.026;8.968;2023-04-24T08:39:12;4.83;;;4.10;;
12577;SDS011;6354;51.026;8.968;2023-04-24T08:41:41;6.43;;;4.27;;
12577;SDS011;6354;51.026;8.968;2023-04-24T08:44:11;5.13;;;4.00;;
12577;SDS011;6354;51.026;8.968;2023-04-24T08:46:42;5.33;;;3.83;;
12577;SDS011;6354;51.026;8.968;2023-04-24T08:49:13;4.73;;;4.13;;
12577;SDS011;6354;51.026;8.968;2023-04-24T08:51:42;5.33;;;3.93;;
12577;SDS011;6354;51.026;8.968;2023-04-24T08:54:13;4.57;;;4.17;;
12577;SDS011;6354;51.026;8.968;2023-04-24T08:56:41;4.87;;;4.40;;
12577;SDS011;6354;51.026;8.968;2023-04-24T08:59:11;4.00;;;3.70;;
12577;SDS011;6354;51.026;8.968;2023-04-24T09:01:40;4.37;;;3.50;;
12577;SDS011;6354;51.026;8.968;2023-04-24T09:04:09;3.50;;;3.20;;
12577;SDS011;6354;51.026;8.968;2023-04-24T09:06:40;4.07;;;3.53;;
12577;SDS011;6354;51.026;8.968;2023-04-24T09:09:09;4.73;;;3.37;;
12577;SDS011;6354;51.026;8.968;2023-04-24T09:11:38;3.23;;;2.93;;
12577;SDS011;6354;51.026;8.968;2023-04-24T09:14:07;3.93;;;3.10;;
12577;SDS011;6354;51.026;8.968;2023-04-24T09:16:37;4.83;;;3.50;;
12577;SDS011;6354;51.026;8.968;2023-04-24T09:19:05;3.87;;;3.50;;
12577;SDS011;6354;51.026;8.968;2023-04-24T09:21:33;3.27;;;2.97;;
12577;SDS011;6354;51.026;8.968;2023-04-24T09:24:04;3.87;;;3.37;;
12577;SDS011;6354;51.026;8.968;2023-04-24T09:26:35;4.03;;;3.17;;
12577;SDS011;6354;51.026;8.968;2023-04-24T09:29:03;3.67;;;3.30;;
12577;SDS011;6354;51.026;8.968;2023-04-24T09:31:31;5.30;;;3.60;;
12577;SDS011;6354;51.026;8.968;2023-04-24T09:34:00;3.33;;;3.10;;
12577;SDS011;6354;51.026;8.968;2023-04-24T09:36:34;3.90;;;3.50;;
12577;SDS011;6354;51.026;8.968;2023-04-24T09:39:06;4.00;;;3.47;;
12577;SDS011;6354;51.026;8.968;2023-04-24T09:41:43;4.00;;;3.60;;
12577;SDS011;6354;51.026;8.968;2023-04-24T09:44:12;4.47;;;3.07;;
12577;SDS011;6354;51.026;8.968;2023-04-24T09:46:41;4.40;;;3.07;;
12577;SDS011;6354;51.026;8.968;2023-04-24T09:49:13;3.30;;;3.00;;
12577;SDS011;6354;51.026;8.968;2023-04-24T09:51:42;3.50;;;3.20;;
12577;SDS011;6354;51.026;8.968;2023-04-24T09:54:14;3.20;;;2.80;;
12577;SDS011;6354;51.026;8.968;2023-04-24T09:56:43;3.00;;;2.67;;
12577;SDS011;6354;51.026;8.968;2023-04-24T09:59:14;6.00;;;2.70;;
12577;SDS011;6354;51.026;8.968;2023-04-24T10:01:43;3.40;;;3.10;;
12577;SDS011;6354;51.026;8.968;2023-04-24T10:04:15;3.43;;;3.00;;
12577;SDS011;6354;51.026;8.968;2023-04-24T10:06:44;2.60;;;2.40;;
12577;SDS011;6354;51.026;8.968;2023-04-24T10:09:16;3.13;;;2.20;;
12577;SDS011;6354;51.026;8.968;2023-04-24T10:11:45;2.80;;;2.60;;
12577;SDS011;6354;51.026;8.968;2023-04-24T10:14:16;4.67;;;2.37;;
12577;SDS011;6354;51.026;8.968;2023-04-24T10:16:49;2.83;;;2.60;;
12577;SDS011;6354;51.026;8.968;2023-04-24T10:19:19;2.67;;;2.47;;
12577;SDS011;6354;51.026;8.968;2023-04-24T10:21:49;2.60;;;2.40;;
12577;SDS011;6354;51.026;8.968;2023-04-24T10:24:18;2.37;;;2.20;;
12577;SDS011;6354;51.026;8.968;2023-04-24T10:26:47;2.73;;;2.43;;
12577;SDS011;6354;51.026;8.968;2023-04-24T10:29:16;2.53;;;2.00;;
12577;SDS011;6354;51.026;8.968;2023-04-24T10:31:45;2.20;;;2.00;;
12577;SDS011;6354;51.026;8.968;2023-04-24T10:34:14;1.90;;;1.80;;
12577;SDS011;6354;51.026;8.968;2023-04-24T10:36:46;1.50;;;1.40;;
12577;SDS011;6354;51.026;8.968;2023-04-24T10:39:20;1.40;;;1.30;;
12577;SDS011;6354;51.026;8.968;2023-04-24T10:41:53;1.50;;;1.40;;
12577;SDS011;6354;51.026;8.968;2023-04-24T10:44:23;1.17;;;1.10;;
12577;SDS011;6354;51.026;8.968;2023-04-24T10:46:53;1.33;;;1.23;;
12577;SDS011;6354;51.026;8.968;2023-04-24T10:49:27;0.83;;;0.83;;
12577;SDS011;6354;51.026;8.968;2023-04-24T10:51:59;1.17;;;1.10;;
12577;SDS011;6354;51.026;8.968;2023-04-24T10:54:33;0.80;;;0.80;;
12577;SDS011;6354;51.026;8.968;2023-04-24T11:00:14;0.70;;;0.70;;
12577;SDS011;6354;51.026;8.968;2023-04-24T11:02:45;0.60;;;0.60;;
12577;SDS011;6354;51.026;8.968;2023-04-24T11:05:19;1.27;;;0.93;;
12577;SDS011;6354;51.026;8.968;2023-04-24T11:10:47;1.03;;;0.30;;
12577;SDS011;6354;51.026;8.968;2023-04-24T11:13:22;0.53;;;0.27;;
12577;SDS011;6354;51.026;8.968;2023-04-24T11:18:39;1.50;;;0.40;;
12577;SDS011;6354;51.026;8.968;2023-04-24T11:21:12;0.37;;;0.30;;
12577;SDS011;6354;51.026;8.968;2023-04-24T11:23:40;1.70;;;0.37;;
12577;SDS011;6354;51.026;8.968;2023-04-24T11:26:14;0.30;;;0.30;;
12577;SDS011;6354;51.026;8.968;2023-04-24T11:28:46;0.43;;;0.43;;
12577;SDS011;6354;51.026;8.968;2023-04-24T11:31:34;0.43;;;0.43;;
12577;SDS011;6354;51.026;8.968;2023-04-24T11:34:07;0.60;;;0.60;;
12577;SDS011;6354;51.026;8.968;2023-04-24T11:36:36;0.80;;;0.80;;
12577;SDS011;6354;51.026;8.968;2023-04-24T11:39:04;0.57;;;0.57;;
12577;SDS011;6354;51.026;8.968;2023-04-24T11:41:34;0.50;;;0.50;;
12577;SDS011;6354;51.026;8.968;2023-04-24T11:44:02;0.50;;;0.50;;
12577;SDS011;6354;51.026;8.968;2023-04-24T11:46:33;0.63;;;0.63;;
12577;SDS011;6354;51.026;8.968;2023-04-24T11:49:02;0.80;;;0.47;;
12577;SDS011;6354;51.026;8.968;2023-04-24T11:51:30;0.53;;;0.47;;
12577;SDS011;6354;51.026;8.968;2023-04-24T11:54:16;0.67;;;0.63;;
12577;SDS011;6354;51.026;8.968;2023-04-24T11:56:45;4.40;;;0.87;;
12577;SDS011;6354;51.026;8.968;2023-04-24T11:59:14;0.40;;;0.40;;
12577;SDS011;6354;51.026;8.968;2023-04-24T12:01:42;0.87;;;0.67;;
12577;SDS011;6354;51.026;8.968;2023-04-24T12:04:11;0.60;;;0.60;;
12577;SDS011;6354;51.026;8.968;2023-04-24T12:06:45;0.67;;;0.67;;
12577;SDS011;6354;51.026;8.968;2023-04-24T12:09:26;0.70;;;0.70;;
12577;SDS011;6354;51.026;8.968;2023-04-24T12:11:56;0.70;;;0.70;;
12577;SDS011;6354;51.026;8.968;2023-04-24T12:14:24;0.87;;;0.60;;
12577;SDS011;6354;51.026;8.968;2023-04-24T12:16:52;0.70;;;0.70;;
12577;SDS011;6354;51.026;8.968;2023-04-24T12:19:20;1.50;;;0.77;;
12577;SDS011;6354;51.026;8.968;2023-04-24T12:24:35;0.70;;;0.70;;
12577;SDS011;6354;51.026;8.968;2023-04-24T12:27:24;0.90;;;0.90;;
12577;SDS011;6354;51.026;8.968;2023-04-24T12:29:52;0.97;;;0.70;;
12577;SDS011;6354;51.026;8.968;2023-04-24T12:32:23;0.90;;;0.90;;
12577;SDS011;6354;51.026;8.968;2023-04-24T12:34:53;0.70;;;0.70;;
12577;SDS011;6354;51.026;8.968;2023-04-24T12:37:22;1.17;;;1.03;;
12577;SDS011;6354;51.026;8.968;2023-04-24T12:39:58;0.90;;;0.90;;
12577;SDS011;6354;51.026;8.968;2023-04-24T12:42:28;1.00;;;1.00;;
12577;SDS011;6354;51.026;8.968;2023-04-24T12:44:57;1.00;;;1.00;;
12577;SDS011;6354;51.026;8.968;2023-04-24T12:47:27;1.30;;;1.17;;
12577;SDS011;6354;51.026;8.968;2023-04-24T12:49:55;1.10;;;1.10;;
12577;SDS011;6354;51.026;8.968;2023-04-24T12:52:23;1.30;;;1.20;;
12577;SDS011;6354;51.026;8.968;2023-04-24T12:54:53;1.70;;;1.60;;
12577;SDS011;6354;51.026;8.968;2023-04-24T12:57:22;1.50;;;1.40;;
12577;SDS011;6354;51.026;8.968;2023-04-24T12:59:52;1.57;;;1.47;;
12577;SDS011;6354;51.026;8.968;2023-04-24T13:02:21;1.93;;;1.83;;
12577;SDS011;6354;51.026;8.968;2023-04-24T13:04:49;1.87;;;1.60;;
12577;SDS011;6354;51.026;8.968;2023-04-24T13:07:18;2.47;;;2.00;;
12577;SDS011;6354;51.026;8.968;2023-04-24T13:09:47;2.20;;;2.00;;
12577;SDS011;6354;51.026;8.968;2023-04-24T13:12:16;2.67;;;2.47;;
12577;SDS011;6354;51.026;8.968;2023-04-24T13:14:45;6.83;;;5.90;;
12577;SDS011;6354;51.026;8.968;2023-04-24T13:17:15;2.60;;;2.40;;
12577;SDS011;6354;51.026;8.968;2023-04-24T13:19:43;3.50;;;3.20;;
12577;SDS011;6354;51.026;8.968;2023-04-24T13:22:12;2.80;;;2.60;;
12577;SDS011;6354;51.026;8.968;2023-04-24T13:24:40;2.50;;;2.30;;
12577;SDS011;6354;51.026;8.968;2023-04-24T13:27:08;2.67;;;2.47;;
12577;SDS011;6354;51.026;8.968;2023-04-24T13:29:36;2.63;;;2.43;;
12577;SDS011;6354;51.026;8.968;2023-04-24T13:32:04;2.50;;;2.27;;
12577;SDS011;6354;51.026;8.968;2023-04-24T13:34:34;2.53;;;2.33;;
12577;SDS011;6354;51.026;8.968;2023-04-24T13:37:03;4.53;;;2.30;;
12577;SDS011;6354;51.026;8.968;2023-04-24T13:39:32;3.93;;;2.60;;
12577;SDS011;6354;51.026;8.968;2023-04-24T13:42:00;3.20;;;2.37;;
12577;SDS011;6354;51.026;8.968;2023-04-24T13:44:30;3.37;;;2.60;;
12577;SDS011;6354;51.026;8.968;2023-04-24T13:46:58;2.90;;;2.70;;
12577;SDS011;6354;51.026;8.968;2023-04-24T13:49:26;3.10;;;2.67;;
12577;SDS011;6354;51.026;8.968;2023-04-24T13:51:56;3.67;;;2.80;;
12577;SDS011;6354;51.026;8.968;2023-04-24T13:54:24;3.30;;;3.00;;
12577;SDS011;6354;51.026;8.968;2023-04-24T13:56:52;3.80;;;3.20;;
12577;SDS011;6354;51.026;8.968;2023-04-24T13:59:20;3.40;;;3.10;;
12577;SDS011;6354;51.026;8.968;2023-04-24T14:01:48;4.60;;;3.57;;
12577;SDS011;6354;51.026;8.968;2023-04-24T14:04:17;4.40;;;3.33;;
12577;SDS011;6354;51.026;8.968;2023-04-24T14:06:45;4.77;;;3.47;;
12577;SDS011;6354;51.026;8.968;2023-04-24T14:09:14;3.97;;;3.40;;
12577;SDS011;6354;51.026;8.968;2023-04-24T14:11:42;4.97;;;3.10;;
12577;SDS011;6354;51.026;8.968;2023-04-24T14:14:10;8.40;;;6.37;;
12577;SDS011;6354;51.026;8.968;2023-04-24T14:16:38;8.73;;;7.83;;
12577;SDS011;6354;51.026;8.968;2023-04-24T14:19:06;7.10;;;5.37;;
12577;SDS011;6354;51.026;8.968;2023-04-24T14:21:35;8.63;;;7.23;;
12577;SDS011;6354;51.026;8.968;2023-04-24T14:24:03;9.30;;;6.10;;
12577;SDS011;6354;51.026;8.968;2023-04-24T14:26:32;9.33;;;7.17;;
12577;SDS011;6354;51.026;8.968;2023-04-24T14:29:00;13.10;;;8.80;;
12577;SDS011;6354;51.026;8.968;2023-04-24T14:31:40;12.07;;;7.77;;
12577;SDS011;6354;51.026;8.968;2023-04-24T14:34:08;15.40;;;8.77;;
12577;SDS011;6354;51.026;8.968;2023-04-24T14:36:36;7.60;;;6.00;;
12577;SDS011;6354;51.026;8.968;2023-04-24T14:39:04;7.33;;;4.50;;
12577;SDS011;6354;51.026;8.968;2023-04-24T14:41:35;11.30;;;4.37;;
12577;SDS011;6354;51.026;8.968;2023-04-24T14:44:03;6.20;;;4.00;;
12577;SDS011;6354;51.026;8.968;2023-04-24T14:46:32;5.90;;;4.03;;
12577;SDS011;6354;51.026;8.968;2023-04-24T14:49:00;5.97;;;4.10;;
12577;SDS011;6354;51.026;8.968;2023-04-24T14:51:28;9.43;;;4.60;;
12577;SDS011;6354;51.026;8.968;2023-04-24T14:53:56;6.60;;;4.30;;
12577;SDS011;6354;51.026;8.968;2023-04-24T14:56:25;6.73;;;4.77;;
12577;SDS011;6354;51.026;8.968;2023-04-24T14:58:54;8.23;;;4.90;;
12577;SDS011;6354;51.026;8.968;2023-04-24T15:01:22;6.57;;;4.67;;
12577;SDS011;6354;51.026;8.968;2023-04-24T15:03:51;6.43;;;4.73;;
12577;SDS011;6354;51.026;8.968;2023-04-24T15:06:20;5.33;;;4.07;;
12577;SDS011;6354;51.026;8.968;2023-04-24T15:08:48;6.90;;;4.17;;
12577;SDS011;6354;51.026;8.968;2023-04-24T15:11:16;9.27;;;4.47;;
12577;SDS011;6354;51.026;8.968;2023-04-24T15:13:45;6.73;;;4.53;;
12577;SDS011;6354;51.026;8.968;2023-04-24T15:16:15;6.37;;;4.30;;
12577;SDS011;6354;51.026;8.968;2023-04-24T15:18:43;8.00;;;4.50;;
12577;SDS011;6354;51.026;8.968;2023-04-24T15:21:11;5.87;;;4.27;;
12577;SDS011;6354;51.026;8.968;2023-04-24T15:23:39;6.73;;;4.20;;
12577;SDS011;6354;51.026;8.968;2023-04-24T15:26:07;9.90;;;6.57;;